Aviation Digital Data Service (ADDS)

Output produced by METARs form (1144 UTC 27 May 2017)
found at http://www.aviationweather.gov/adds/metars/
 
RKSG 271058Z AUTO 33007KT 10SM CLR 17/04 A2988 RMK AO2 SLP121 T01720040 $
TAF RKSG 270400Z 2704/2810 28009KT 9999 SKC QNH2985INS 
     BECMG 2714/2715 VRB06KT 8000 BR SKC QNH2983INS 
     BECMG 2802/2803 22012G18KT 9999 NSW FEW030 QNH2981INS TX25/2705Z TN12/2718Z
       
RKTU 271100Z 28006KT CAVOK 21/06 Q1011 NOSIG
TAF RKTU 271100Z 2712/2818 27006KT 9999 SCT030 TN11/2721Z TX30/2806Z
       
RKTN 271100Z 10005KT 9999 SCT050 21/09 Q1010 NOSIG
TAF RKTN 271100Z 2712/2818 12006KT 9999 SCT050 TN14/2720Z TX32/2807Z 
     BECMG 2800/2801 27008KT
       
RKPK 271100Z 17009KT CAVOK 18/13 Q1012 NOSIG
TAF RKPK 271100Z 2712/2818 30006KT 9999 FEW030 TN15/2720Z TX28/2804Z 
     BECMG 2801/2802 18012KT
       
RKSS 271100Z 32005KT CAVOK 16/02 Q1012 NOSIG
TAF RKSS 271100Z 2712/2818 29005KT CAVOK TN12/2721Z TX26/2806Z 
     BECMG 2721/2722 12005KT 
     BECMG 2800/2801 18010KT 
     BECMG 2804/2805 21015G25KT 
     BECMG 2807/2808 19008KT 
     BECMG 2814/2815 4200 BR FEW010
       
RKSI 271130Z 31004KT CAVOK 17/06 Q1012 NOSIG
TAF RKSI 271100Z 2712/2818 23007KT CAVOK TN15/2721Z TX24/2805Z 
     BECMG 2720/2721 16008KT 4200 BR NSC 
     BECMG 2722/2723 7000 NSW 
     BECMG 2803/2804 22015G25KT SCT030 
     BECMG 2810/2811 22010KT 
     BECMG 2814/2815 4200 BR
       
RKPC 271100Z 27005KT CAVOK 17/08 Q1013 NOSIG
TAF RKPC 271100Z 2712/2818 27005KT CAVOK TN14/2720Z TX26/2805Z 
     BECMG 2714/2715 20005KT 
     BECMG 2723/2724 35005KT 
     BECMG 2806/2807 05006KT 
     BECMG 2811/2812 19005KT
       
RKJK 271058Z AUTO 26008KT 10SM CLR 17/08 A2989 RMK AO2 SLP126 T01680077 $
TAF RKJK 270700Z 2707/2813 29012KT 9999 FEW200 QNH2986INS WND VRB06KT AFT 2712 
     BECMG 2802/2803 20012G18KT 9999 FEW030 QNH2983INS 
     TEMPO 2803/2808 22015G25KT 
     BECMG 2811/2812 19012KT 9999 FEW020 QNH2985INS TX22/2805Z TN12/2718Z
       
RKSO 271055Z 28002KT 7SM CLR 19/02 A2989 RMK AO2A SLPNO WND DATA ESTMD ALSTG ESTMD $
TAF RKSO 271100Z 2711/2817 28009KT 9999 SKC QNH2987INS 
     BECMG 2714/2715 VRB06KT 8000 BR SKC QNH2988INS 
     BECMG 2802/2803 22012G20KT 9999 NSW FEW040 QNH2986INS 
     BECMG 2809/2810 21009KT 9999 FEW025 QNH2983INS 
     BECMG 2813/2814 19006KT 6000 BR SCT180 QNH2984INS TX27/2806Z TN12/2718Z
       
TAF RKTP 282300Z 2900/3006 21006KT 1600 BR SCT010 
     BECMG 2901/2902 21006KT 4800 BR SCT030 WND 24012KT 2902/2908 VIS 9999 NSW AFT 2902 TX21/2905Z TN10/2921Z
       
RKSM 271100Z 24003KT 9999 SKC 21/05 A2988 RMK SLP116
TAF RKSM 270500Z 2706/2812 30006KT 9999 SCT050 
     TEMPO 2706/2709 30006KT 9999 BKN050 TN15/2721Z TX29/2806Z
       
RKNY 271100Z 13002KT CAVOK 17/10 Q1011 NOSIG
TAF RKNY 271100Z 2712/2818 25008KT CAVOK TN14/2721Z TX27/2806Z 
     BECMG 2802/2803 09007KT 
     BECMG 2804/2805 23010KT 
     BECMG 2808/2809 25015G25KT